• Join FlightAware (Why Join?)
  • Login
  • US Flag 
04:02PM EDT


 

Airport Tracker/Info


-or-


 

Live Flight TrackerFlight Track Log ✈ UAL4236 ✈ 08-Apr-2013 ✈ KIAH - KELP

Flight Track Log - Related Links

Times and Time Zones

All times are in EDT time to prevent confusion due to time zone crossing. See the UAL4236 flight status page for this flight to view local times or setup timezone preferences in your user account.

Time Position Orientation Groundspeed Altitude Reporting Facility
EDT Latitude Longitude Course Direction KTS MPH feet Rate Location/Type
09:55AM 29.9617 -95.3436 276° West 160 184 700  Level Houston Center
09:56AM 29.9289 -95.3742 219° Southwest 207 238 2,400 1,560 Climbing Houston Center
09:57AM 29.8969 -95.4381 240° Southwest 241 277 3,800 1,500 Climbing Houston Center
09:58AM 30.0211 -95.6900 277° West  Level FlightAware Approximate
09:58AM 29.8719 -95.4886 240° Southwest 236 272 5,400  Level Houston Center
09:59AM 30.0341 -95.8094 276° West  Level FlightAware Approximate
09:59AM 29.8483 -95.5611 249° West 250 288 7,300  Level Houston Center
10:00AM 30.0441 -95.9292 276° West  Level FlightAware Approximate
10:00AM 29.8803 -95.6603 290° West 279 321 9,800  Level Houston Center
10:01AM 29.9122 -95.7458 293° West 290 334 10,600 720 Climbing Houston Center
10:02AM 29.9503 -95.8450 294° West 334 384 11,400 960 Climbing Houston Center
10:03AM 29.9883 -95.9475 293° West 347 399 12,700 1,200 Climbing Houston Center
10:04AM 30.0286 -96.0544 294° West 354 407 13,900 1,020 Climbing Houston Center
10:05AM 30.0686 -96.1592 294° West 359 413 14,900 1,020 Climbing Houston Center
10:06AM 30.1078 -96.2953 288° West 372 428 16,100 1,140 Climbing Houston Center
10:07AM 30.1244 -96.4133 279° West 376 433 17,300 1,080 Climbing Houston Center
10:08AM 30.1411 -96.5239 280° West 376 433 18,400 1,080 Climbing Houston Center
10:09AM 30.1622 -96.6658 280° West 379 436 19,600 960 Climbing Houston Center
10:10AM 30.1817 -96.7903 280° West 387 445 20,500 900 Climbing Houston Center
10:11AM 30.1997 -96.9158 279° West 390 449 21,500 900 Climbing Houston Center
10:12AM 30.2197 -97.0381 281° West 385 443 22,400 900 Climbing Houston Center
10:13AM 30.2369 -97.1642 279° West 390 449 23,400 720 Climbing Houston Center
10:14AM 30.2558 -97.2894 280° West 391 450 24,000 240 Climbing Houston Center
10:15AM 30.2747 -97.4194 280° West 398 458 24,000  Level Houston Center
10:16AM 30.2936 -97.5561 279° West 415 478 24,000  Level Houston Center
10:17AM 30.3172 -97.7164 280° West 427 491 24,000  Level Houston Center
10:18AM 30.3367 -97.8550 279° West 432 497 24,000  Level Houston Center
10:19AM 30.3550 -97.9917 279° West 426 490 24,000  Level Houston Center
10:20AM 30.3806 -98.1289 282° West 429 494 24,000  Level Houston Center
10:22AM 30.4061 -98.2642 282° West 426 490 24,000  Level Houston Center
10:23AM 30.4339 -98.4006 283° West 428 493 24,000  Level Houston Center
10:24AM 30.4583 -98.5356 282° West 426 490 24,000  Level Houston Center
10:25AM 30.4850 -98.6694 283° West 423 487 24,000  Level Houston Center
10:26AM 30.5142 -98.8272 282° West 426 490 24,000  Level Houston Center
10:27AM 30.5403 -98.9619 283° West 425 489 24,000  Level Houston Center
10:28AM 30.5667 -99.0961 283° West 423 487 24,000  Level Houston Center
10:29AM 30.5922 -99.2314 282° West 424 488 24,000  Level Houston Center
10:30AM 30.6161 -99.3639 282° West 423 487 24,000  Level Houston Center
10:31AM 30.6417 -99.4961 283° West 422 486 24,000  Level Houston Center
10:32AM 30.6708 -99.6575 282° West 426 490 24,000  Level Houston Center
10:33AM 30.6939 -99.7878 282° West 413 475 24,000  Level Houston Center
10:34AM 30.7183 -99.9214 282° West 427 491 24,000  Level Houston Center
10:35AM 30.7425 -100.0569 282° West 429 494 24,000  Level Houston Center
10:36AM 30.7672 -100.1897 282° West 423 487 24,000  Level Houston Center
10:37AM 30.7956 -100.3550 281° West 436 502 24,000  Level Houston Center
10:38AM 30.8219 -100.4883 283° West 426 490 24,000  Level Houston Center
10:39AM 30.8453 -100.6272 281° West 435 501 24,000  Level Houston Center
10:40AM 30.8689 -100.7681 281° West 443 510 24,000  Level Houston Center
10:41AM 30.8931 -100.9050 282° West 437 503 24,000  Level Houston Center
10:42AM 30.9164 -101.0414 281° West 433 498 24,000  Level Houston Center
10:43AM 30.9450 -101.2056 282° West 432 497 24,000  Level Houston Center
10:44AM 30.9681 -101.3406 281° West 430 495 24,000  Level Houston Center
10:45AM 30.9914 -101.4750 281° West 431 496 24,000  Level Albuquerque Center
10:46AM 31.0128 -101.6106 280° West 428 493 24,000  Level Albuquerque Center
10:47AM 31.0358 -101.7472 281° West 429 494 24,000  Level Albuquerque Center
10:48AM 31.0619 -101.9097 281° West 425 489 24,000  Level Albuquerque Center
10:49AM 31.0842 -102.0461 281° West 425 489 24,000  Level Albuquerque Center
10:50AM 31.1064 -102.1828 281° West 425 489 24,000  Level Albuquerque Center
10:51AM 31.1294 -102.3239 281° West 429 494 24,000  Level Albuquerque Center
10:53AM 31.1517 -102.4636 281° West 432 497 24,000  Level Albuquerque Center
10:54AM 31.1722 -102.6000 280° West 430 495 24,000  Level Albuquerque Center
10:55AM 31.1933 -102.7358 280° West 427 491 24,000  Level Albuquerque Center
10:56AM 31.2150 -102.8728 281° West 427 491 24,000  Level Albuquerque Center
10:57AM 31.2369 -103.0081 281° West 426 490 24,000  Level Albuquerque Center
10:58AM 31.2578 -103.1442 280° West 426 490 24,000  Level Albuquerque Center
10:59AM 31.2814 -103.3094 280° West 429 494 24,000  Level Albuquerque Center
11:00AM 31.3039 -103.4467 281° West 428 493 24,000  Level Albuquerque Center
11:01AM 31.3233 -103.5822 280° West 425 489 24,000  Level Albuquerque Center
11:02AM 31.3442 -103.7186 280° West 426 490 24,000  Level Albuquerque Center
11:03AM 31.3647 -103.8583 280° West 425 489 24,000  Level Albuquerque Center
11:04AM 31.3856 -103.9928 280° West 423 487 24,000  Level Albuquerque Center
11:05AM 31.4061 -104.1250 280° West 416 479 24,000  Level Albuquerque Center
11:06AM 31.4289 -104.2836 280° West 414 476 24,000  Level Albuquerque Center
11:07AM 31.4472 -104.4183 279° West 419 482 24,000  Level Albuquerque Center
11:08AM 31.4625 -104.5519 278° West 417 480 24,000  Level Albuquerque Center
11:09AM 31.4769 -104.6867 277° West 419 482 24,000  Level Albuquerque Center
11:10AM 31.4928 -104.8225 278° West 421 484 24,000  Level Albuquerque Center
11:11AM 31.5083 -104.9822 277° West 419 482 24,000 -300 Level Albuquerque Center
11:12AM 31.5217 -105.1178 277° West 419 482 23,400 -1,260 Descending Albuquerque Center
11:13AM 31.5353 -105.2506 277° West 418 481 21,500 -2,040 Descending Albuquerque Center
11:14AM 31.5497 -105.4325 275° West 404 465 18,700 -2,220 Descending Albuquerque Center
11:15AM 31.5575 -105.5081 277° West 387 445 17,300 -2,220 Descending Albuquerque Center
11:16AM 31.5681 -105.6203 276° West 367 422 15,400 -1,800 Descending Albuquerque Center
11:16AM 31.5706 -105.6269 294° West 374 430 15,200 -1,620 Descending Albuquerque Center
11:17AM 31.5817 -105.7389 277° West 369 425 13,800 -1,800 Descending Albuquerque Center
11:17AM 31.5844 -105.7703 276° West 371 427 13,400 -1,500 Descending Albuquerque Center
11:18AM 31.6133 -105.8508 293° West 372 428 12,300 -1,560 Descending Albuquerque Center
11:18AM 31.6272 -105.8778 301° West 365 420 11,800 -1,320 Descending Albuquerque Center
11:19AM 31.6583 -105.9442 299° West 314 361 11,000 -1,260 Descending Albuquerque Center
11:19AM 31.6700 -105.9661 302° West 308 354 10,500 -1,860 Descending Albuquerque Center
11:20AM 31.6950 -106.0150 301° West 261 300 9,300 -1,680 Descending Albuquerque Center
11:20AM 31.7078 -106.0403 301° West 268 308 8,800 -1,140 Descending Albuquerque Center
11:21AM 31.7361 -106.0994 299° West 226 260 8,000 -780 Descending Albuquerque Center
11:21AM 31.7386 -106.1072 291° West 235 270 8,000 -1,140 Level Albuquerque Center
11:22AM 31.7572 -106.1667 290° West 209 241 6,900 -1,260 Descending Albuquerque Center
11:22AM 31.7592 -106.1728 291° West 216 249 6,700 -1,020 Descending Albuquerque Center
11:23AM 31.7775 -106.2317 290° West 211 243 5,900 -1,020 Descending Albuquerque Center
11:23AM 31.7844 -106.2497 294° West 212 244 5,700 -600 Descending Albuquerque Center